Aviation Digital Data Service (ADDS)

Output produced by METARs form (1151 UTC 01 August 2014)
found at http://aviationweather.gov/adds/metars/
 
KSWF 011136Z 0112/0218 VRB02KT P6SM BKN250 
     FM011500 23005KT P6SM SCT250 
     FM011700 20008KT P6SM SCT040 SCT150 BKN250 
     FM020000 VRB05KT P6SM SCT040 BKN150 
     FM020600 VRB05KT P6SM SCT050 BKN100 
     FM021300 10005KT P6SM BKN050 AMD NOT SKED